createdAt,value
2024-03-06T00:00:23.941Z,34.42
2024-03-06T00:02:50.659Z,35.72
2024-03-06T00:05:17.560Z,32.78
2024-03-06T00:07:44.317Z,31.38
2024-03-06T00:10:11.049Z,28.88
2024-03-06T00:12:37.748Z,29.83
2024-03-06T00:15:04.964Z,30.85
2024-03-06T00:17:32.457Z,26.27
2024-03-06T00:19:59.214Z,26.08
2024-03-06T00:22:25.925Z,23.13
2024-03-06T00:24:53.222Z,36.30
2024-03-06T00:27:19.997Z,31.67
2024-03-06T00:29:46.792Z,29.33
2024-03-06T00:32:13.595Z,28.30
2024-03-06T00:34:40.845Z,27.75
2024-03-06T00:37:07.558Z,20.00
2024-03-06T00:39:34.185Z,25.13
2024-03-06T00:42:00.891Z,27.92
2024-03-06T00:44:27.616Z,29.63
2024-03-06T00:46:54.444Z,29.63
2024-03-06T00:49:21.346Z,24.67
2024-03-06T00:51:49.608Z,27.38
2024-03-06T00:54:17.870Z,21.93
2024-03-06T00:56:45.280Z,28.90
2024-03-06T00:59:12.350Z,35.38
2024-03-06T01:01:39.269Z,29.45
2024-03-06T01:04:06.127Z,29.23
2024-03-06T01:06:32.967Z,32.45
2024-03-06T01:08:59.936Z,25.15
2024-03-06T01:11:30.452Z,25.90
2024-03-06T01:13:57.238Z,27.48
2024-03-06T01:16:23.942Z,24.45
2024-03-06T01:18:50.662Z,26.50
2024-03-06T01:21:17.430Z,24.58
2024-03-06T01:23:44.721Z,23.20
2024-03-06T01:26:12.677Z,24.50
2024-03-06T01:28:39.665Z,25.87
2024-03-06T01:31:07.784Z,27.80
2024-03-06T01:33:34.656Z,28.63
2024-03-06T01:36:01.682Z,24.20
2024-03-06T01:38:28.368Z,18.97
2024-03-06T01:40:55.166Z,24.30
2024-03-06T01:43:24.120Z,33.15
2024-03-06T01:45:51.636Z,28.70
2024-03-06T01:48:21.521Z,28.80
2024-03-06T01:50:48.317Z,45.10
2024-03-06T01:53:17.989Z,48.40
2024-03-06T01:55:44.740Z,33.47
2024-03-06T01:58:11.749Z,31.20
2024-03-06T02:00:38.818Z,31.03
2024-03-06T02:03:05.695Z,37.73
2024-03-06T02:05:33.588Z,73.60
2024-03-06T02:08:00.998Z,45.53
2024-03-06T02:10:31.322Z,58.73
2024-03-06T02:12:59.216Z,28.63
2024-03-06T02:15:28.452Z,60.23
2024-03-06T02:17:55.166Z,50.67
2024-03-06T02:20:24.529Z,95.83
2024-03-06T02:22:51.657Z,57.67
2024-03-06T02:25:20.386Z,30.47
2024-03-06T02:27:49.676Z,46.40
2024-03-06T02:30:20.179Z,42.37
2024-03-06T02:32:46.940Z,46.33
2024-03-06T02:35:15.256Z,38.07
2024-03-06T02:37:45.089Z,31.63
2024-03-06T02:40:11.934Z,26.07
2024-03-06T02:42:40.207Z,22.23
2024-03-06T02:45:08.832Z,26.10
2024-03-06T02:47:35.661Z,46.73
2024-03-06T02:50:02.483Z,41.47
2024-03-06T02:52:29.275Z,48.90
2024-03-06T02:54:56.433Z,45.17
2024-03-06T02:57:23.099Z,38.20
2024-03-06T02:59:51.088Z,60.13
2024-03-06T03:02:17.967Z,36.37
2024-03-06T03:04:45.222Z,78.93
2024-03-06T03:07:11.986Z,26.20
2024-03-06T03:09:40.017Z,38.07
2024-03-06T03:12:07.206Z,43.90
2024-03-06T03:14:34.291Z,25.00
2024-03-06T03:17:04.884Z,48.23
2024-03-06T03:19:31.695Z,26.43
2024-03-06T03:21:59.113Z,102.87
2024-03-06T03:24:28.804Z,37.83
2024-03-06T03:26:55.465Z,107.53
2024-03-06T03:29:22.314Z,61.37
2024-03-06T03:31:59.101Z,40.53
2024-03-06T03:34:25.996Z,42.43
2024-03-06T03:36:52.666Z,44.53
2024-03-06T03:39:23.240Z,33.80
2024-03-06T03:41:50.691Z,69.20
2024-03-06T03:44:20.318Z,53.80
2024-03-06T03:46:47.545Z,47.53
2024-03-06T03:49:14.387Z,36.47
2024-03-06T03:51:42.498Z,29.43
2024-03-06T03:54:09.186Z,27.90
2024-03-06T03:56:36.228Z,27.77
2024-03-06T03:59:03.099Z,34.10
2024-03-06T04:01:29.812Z,36.70
2024-03-06T04:03:56.827Z,26.43
2024-03-06T04:06:23.768Z,29.70
2024-03-06T04:08:50.511Z,27.67
2024-03-06T04:11:17.536Z,34.77
2024-03-06T04:13:44.582Z,41.73
2024-03-06T04:16:11.411Z,30.33
2024-03-06T04:18:39.385Z,29.37
2024-03-06T04:21:06.726Z,33.60
2024-03-06T04:23:34.219Z,28.30
2024-03-06T04:26:01.636Z,36.97
2024-03-06T04:28:28.646Z,37.37
2024-03-06T04:30:55.403Z,32.97
2024-03-06T04:33:22.125Z,47.00
2024-03-06T04:35:48.913Z,41.43
2024-03-06T04:38:15.738Z,27.63
2024-03-06T04:40:42.607Z,38.23
2024-03-06T04:43:09.540Z,34.60
2024-03-06T04:45:36.260Z,43.03
2024-03-06T04:48:03.017Z,43.43
2024-03-06T04:50:29.806Z,44.80
2024-03-06T04:52:57.475Z,63.43
2024-03-06T04:55:26.356Z,108.43
2024-03-06T04:57:54.813Z,40.53
2024-03-06T05:00:23.586Z,27.17
2024-03-06T06:00:32.674Z,46.80
2024-03-06T06:02:59.362Z,53.83
2024-03-06T06:05:26.243Z,51.77
2024-03-06T06:07:52.971Z,59.60
2024-03-06T06:10:21.874Z,60.90
2024-03-06T06:12:50.446Z,64.33
2024-03-06T06:15:17.389Z,78.80
2024-03-06T06:17:45.985Z,67.77
2024-03-06T06:20:17.067Z,80.60
2024-03-06T06:22:44.729Z,73.80
2024-03-06T06:25:11.951Z,68.83
2024-03-06T06:27:39.763Z,55.07
2024-03-06T06:30:08.342Z,122.45
2024-03-06T06:32:35.833Z,96.80
2024-03-06T06:35:03.011Z,81.30
2024-03-06T06:37:29.787Z,87.07
2024-03-06T06:39:56.610Z,84.73
2024-03-06T06:42:23.373Z,83.30
2024-03-06T06:44:50.048Z,124.43
2024-03-06T06:47:18.389Z,119.10
2024-03-06T06:49:46.001Z,110.35
2024-03-06T06:52:22.191Z,118.53
2024-03-06T06:54:49.896Z,92.47
2024-03-06T06:57:16.779Z,78.27
2024-03-06T06:59:43.623Z,91.35
2024-03-06T07:02:10.332Z,79.80
2024-03-06T07:04:37.444Z,79.22
2024-03-06T07:07:04.158Z,86.55
2024-03-06T07:09:31.872Z,78.75
2024-03-06T07:11:58.753Z,76.82
2024-03-06T07:14:25.529Z,54.58
2024-03-06T07:16:52.554Z,49.97
2024-03-06T07:19:19.516Z,54.08
2024-03-06T07:21:46.703Z,48.28
2024-03-06T07:24:14.898Z,34.97
2024-03-06T07:26:41.663Z,33.88
2024-03-06T07:29:14.352Z,32.08
2024-03-06T07:31:41.962Z,36.83
2024-03-06T07:34:09.561Z,33.80
2024-03-06T07:36:36.299Z,40.95
2024-03-06T07:39:04.605Z,36.03
2024-03-06T07:41:33.847Z,34.13
2024-03-06T07:44:01.530Z,34.08
2024-03-06T07:46:28.320Z,24.05
2024-03-06T07:48:56.056Z,21.10
2024-03-06T07:51:22.745Z,20.63
2024-03-06T07:53:51.859Z,17.17
2024-03-06T07:56:18.830Z,20.65
2024-03-06T07:58:45.589Z,18.25
2024-03-06T08:01:12.475Z,17.95
2024-03-06T08:03:41.607Z,17.48
2024-03-06T08:06:08.282Z,19.25
2024-03-06T08:08:35.649Z,15.68
2024-03-06T08:11:02.881Z,15.20
2024-03-06T08:13:30.316Z,8.68
2024-03-06T08:15:56.986Z,10.43
2024-03-06T08:18:29.629Z,9.18
2024-03-06T08:20:56.466Z,11.25
2024-03-06T08:23:24.652Z,9.27
2024-03-06T08:25:51.445Z,9.43
2024-03-06T08:28:18.154Z,6.15
2024-03-06T08:30:47.677Z,8.48
2024-03-06T08:33:14.483Z,9.88
2024-03-06T08:35:41.330Z,10.10
2024-03-06T08:38:09.232Z,11.18
2024-03-06T08:40:36.146Z,9.68
2024-03-06T08:43:02.827Z,7.88
2024-03-06T08:45:29.594Z,11.23
2024-03-06T08:47:56.506Z,13.52
2024-03-06T08:50:23.306Z,10.82
2024-03-06T08:52:50.521Z,15.82
2024-03-06T08:55:17.834Z,14.10
2024-03-06T08:57:44.755Z,11.35
2024-03-06T09:00:12.613Z,12.45
2024-03-06T09:02:44.095Z,10.88
2024-03-06T09:05:13.420Z,9.00
2024-03-06T09:07:44.100Z,8.35
2024-03-06T09:10:14.242Z,10.38
2024-03-06T09:12:42.166Z,8.93
2024-03-06T09:15:10.122Z,7.70
2024-03-06T09:17:37.103Z,7.57
2024-03-06T09:20:11.723Z,10.73
2024-03-06T09:22:43.500Z,11.45
2024-03-06T09:25:10.980Z,7.72
2024-03-06T09:27:44.546Z,9.35
2024-03-06T09:30:11.832Z,12.70
2024-03-06T09:32:39.380Z,9.77
2024-03-06T09:35:07.845Z,8.00
2024-03-06T09:37:34.571Z,9.05
2024-03-06T09:40:01.198Z,8.40
2024-03-06T09:42:28.109Z,6.05
2024-03-06T09:44:56.338Z,7.38
2024-03-06T09:47:25.737Z,7.35
2024-03-06T09:49:57.226Z,7.97
2024-03-06T09:52:26.417Z,9.32
2024-03-06T09:54:56.085Z,10.30
2024-03-06T09:57:22.917Z,10.10
2024-03-06T09:59:49.764Z,10.13
2024-03-06T10:02:35.762Z,14.63
2024-03-06T10:05:02.753Z,10.55
2024-03-06T10:07:29.521Z,8.77
2024-03-06T10:09:57.040Z,8.35
2024-03-06T10:12:24.164Z,9.10
2024-03-06T10:14:54.037Z,10.70
2024-03-06T10:17:25.185Z,10.07
2024-03-06T10:19:53.290Z,9.80
2024-03-06T10:22:25.800Z,11.05
2024-03-06T10:24:59.701Z,10.48
2024-03-06T10:27:27.487Z,9.15
2024-03-06T10:30:12.258Z,10.55
2024-03-06T10:32:39.128Z,16.35
2024-03-06T10:35:07.804Z,13.60
2024-03-06T10:37:35.679Z,14.30
2024-03-06T10:40:07.286Z,8.18
2024-03-06T10:42:34.350Z,8.73
2024-03-06T10:45:02.744Z,7.35
2024-03-06T10:47:30.273Z,7.28
2024-03-06T10:50:01.564Z,7.60
2024-03-06T10:52:29.080Z,6.07
2024-03-06T10:55:00.047Z,6.20
2024-03-06T10:57:28.325Z,7.20
2024-03-06T10:59:55.882Z,7.15
2024-03-06T11:02:24.949Z,6.63
2024-03-06T11:04:53.250Z,6.35
2024-03-06T11:07:20.479Z,7.45
2024-03-06T11:09:50.188Z,8.00
2024-03-06T11:12:40.111Z,6.80
2024-03-06T11:15:12.022Z,6.43
2024-03-06T11:17:39.324Z,6.18
2024-03-06T11:20:10.358Z,8.20
2024-03-06T11:22:57.408Z,8.75
2024-03-06T11:25:52.328Z,7.38
2024-03-06T11:28:30.300Z,8.63
2024-03-06T11:31:08.165Z,9.00
2024-03-06T11:33:39.815Z,9.20
2024-03-06T11:36:20.084Z,8.75
2024-03-06T11:38:57.240Z,7.25
2024-03-06T11:41:26.582Z,7.18
2024-03-06T11:43:54.685Z,6.25
2024-03-06T11:46:22.453Z,7.85
2024-03-06T11:48:57.189Z,6.15
2024-03-06T11:51:24.780Z,6.88
2024-03-06T11:53:52.556Z,6.88
2024-03-06T11:56:20.807Z,7.82
2024-03-06T11:58:50.597Z,10.00
2024-03-06T12:01:19.718Z,9.40
2024-03-06T12:03:48.313Z,8.15
2024-03-06T12:06:18.341Z,6.97
2024-03-06T12:08:45.155Z,7.55
2024-03-06T12:11:12.095Z,8.05
2024-03-06T12:13:38.933Z,7.35
2024-03-06T12:16:08.431Z,5.47
2024-03-06T12:18:36.621Z,8.90
2024-03-06T12:21:06.150Z,7.45
2024-03-06T12:23:33.685Z,6.28
2024-03-06T12:26:10.401Z,5.45
2024-03-06T12:28:38.518Z,7.93
2024-03-06T12:31:05.933Z,8.68
2024-03-06T12:33:35.968Z,8.30
2024-03-06T12:36:04.859Z,8.85
2024-03-06T12:38:31.863Z,12.90
2024-03-06T12:40:59.818Z,10.38
2024-03-06T12:43:27.128Z,8.15
2024-03-06T12:45:58.020Z,8.60
2024-03-06T12:48:27.353Z,10.02
2024-03-06T12:50:55.481Z,14.20
2024-03-06T12:53:23.256Z,9.00
2024-03-06T12:55:50.193Z,9.95
2024-03-06T12:58:19.048Z,10.85
2024-03-06T13:00:45.843Z,9.13
2024-03-06T13:03:12.553Z,10.90
2024-03-06T13:05:39.542Z,7.93
2024-03-06T13:08:06.604Z,9.07
2024-03-06T13:10:33.371Z,8.13
2024-03-06T13:13:00.050Z,5.82
2024-03-06T13:15:26.697Z,7.47
2024-03-06T13:17:53.531Z,10.88
2024-03-06T13:20:21.064Z,13.18
2024-03-06T13:22:47.822Z,9.20
2024-03-06T13:25:14.604Z,11.77
2024-03-06T13:27:41.299Z,13.07
2024-03-06T13:30:09.439Z,9.77
2024-03-06T13:32:36.445Z,8.70
2024-03-06T13:35:03.562Z,7.88
2024-03-06T13:37:39.647Z,8.05
2024-03-06T13:40:08.424Z,7.50
2024-03-06T13:42:36.345Z,8.10
2024-03-06T13:45:04.562Z,6.53
2024-03-06T13:47:31.578Z,7.63
2024-03-06T13:49:58.288Z,9.05
2024-03-06T13:52:25.015Z,8.95
2024-03-06T13:54:52.800Z,9.70
2024-03-06T13:57:19.688Z,7.47
2024-03-06T13:59:46.512Z,15.57
2024-03-06T14:02:13.516Z,26.95
2024-03-06T14:04:40.297Z,13.07
2024-03-06T14:07:08.620Z,15.32
2024-03-06T14:09:35.448Z,18.17
2024-03-06T14:12:03.113Z,101.82
2024-03-06T14:14:30.263Z,15.15
2024-03-06T14:16:57.109Z,12.02
2024-03-06T14:19:23.833Z,26.40
2024-03-06T14:21:50.761Z,16.63
2024-03-06T14:24:19.716Z,15.50
2024-03-06T14:26:46.443Z,14.18
2024-03-06T14:29:15.607Z,14.52
2024-03-06T14:31:42.817Z,11.02
2024-03-06T14:34:09.542Z,13.27
2024-03-06T14:36:36.554Z,22.85
2024-03-06T14:39:04.210Z,22.02
2024-03-06T14:41:33.446Z,23.00
2024-03-06T14:44:00.235Z,27.92
2024-03-06T14:46:26.993Z,20.05
2024-03-06T14:48:53.697Z,19.02
2024-03-06T14:51:20.422Z,16.00
2024-03-06T14:53:47.134Z,33.88
2024-03-06T14:56:13.918Z,22.83
2024-03-06T14:58:40.800Z,16.08
2024-03-06T15:01:07.540Z,29.35
2024-03-06T15:03:34.692Z,19.83
2024-03-06T15:06:01.478Z,18.50
2024-03-06T15:08:33.744Z,21.77
2024-03-06T15:11:01.112Z,21.05
2024-03-06T15:13:27.838Z,30.75
2024-03-06T15:15:54.662Z,35.35
2024-03-06T15:18:21.956Z,21.20
2024-03-06T15:20:49.052Z,22.73
2024-03-06T15:23:18.926Z,24.73
2024-03-06T15:25:45.745Z,24.85
2024-03-06T15:28:12.478Z,24.80
2024-03-06T15:30:39.484Z,21.90
2024-03-06T15:33:09.989Z,19.67
2024-03-06T15:35:36.771Z,16.80
2024-03-06T15:38:04.994Z,26.15
2024-03-06T15:40:33.097Z,37.20
2024-03-06T15:43:00.116Z,56.65
2024-03-06T15:45:26.817Z,28.58
2024-03-06T15:47:53.609Z,24.75
2024-03-06T15:50:20.499Z,23.60
2024-03-06T15:52:47.748Z,17.65
2024-03-06T15:55:14.586Z,21.77
2024-03-06T15:57:41.301Z,24.92
2024-03-06T16:00:10.790Z,25.17
2024-03-06T16:02:39.832Z,29.20
2024-03-06T16:05:09.649Z,29.08
2024-03-06T16:07:42.252Z,32.40
2024-03-06T16:10:13.933Z,34.10
2024-03-06T16:12:40.587Z,34.15
2024-03-06T16:15:07.903Z,32.95
2024-03-06T16:17:36.070Z,35.75
2024-03-06T16:20:06.233Z,27.85
2024-03-06T16:22:33.755Z,51.20
2024-03-06T16:25:00.515Z,36.65
2024-03-06T16:27:27.191Z,40.80
2024-03-06T16:29:53.894Z,37.55
2024-03-06T16:32:22.001Z,22.25
2024-03-06T16:34:48.725Z,30.70
2024-03-06T16:37:16.028Z,37.08
2024-03-06T16:39:42.802Z,34.80
2024-03-06T16:42:09.779Z,35.15
2024-03-06T16:44:36.571Z,27.48
2024-03-06T16:47:04.862Z,34.10
2024-03-06T16:49:31.573Z,34.38
2024-03-06T16:52:00.013Z,28.27
2024-03-06T16:54:28.502Z,24.90
2024-03-06T16:56:55.655Z,23.58
2024-03-06T16:59:23.449Z,21.35
2024-03-06T17:01:52.674Z,25.15
2024-03-06T17:04:20.585Z,32.88
2024-03-06T17:06:47.229Z,26.05
2024-03-06T17:09:14.766Z,29.45
2024-03-06T17:11:45.093Z,43.78
2024-03-06T17:14:12.586Z,30.63
2024-03-06T17:16:39.288Z,114.20
2024-03-06T17:19:07.085Z,55.28
2024-03-06T17:21:37.948Z,52.95
2024-03-06T17:24:06.107Z,38.60
2024-03-06T17:26:38.805Z,27.33
2024-03-06T17:29:06.989Z,25.20
2024-03-06T17:31:37.271Z,21.20
2024-03-06T17:34:07.214Z,15.25
2024-03-06T17:36:37.347Z,17.08
2024-03-06T17:39:10.246Z,14.43
2024-03-06T17:41:40.043Z,18.23
2024-03-06T17:44:06.786Z,15.57
2024-03-06T17:46:33.579Z,16.23
2024-03-06T17:49:00.936Z,21.58
2024-03-06T17:51:33.121Z,22.23
2024-03-06T17:53:59.924Z,12.75
2024-03-06T17:56:28.975Z,30.35
2024-03-06T17:58:57.329Z,19.10
2024-03-06T18:01:26.756Z,24.38
2024-03-06T18:03:59.553Z,21.88
2024-03-06T18:06:26.450Z,21.70
2024-03-06T18:08:54.633Z,34.55
2024-03-06T18:11:22.895Z,37.90
2024-03-06T18:13:52.360Z,49.38
2024-03-06T18:16:21.239Z,37.05
2024-03-06T18:18:48.226Z,33.40
2024-03-06T18:21:17.320Z,16.23
2024-03-06T18:23:45.121Z,19.75
2024-03-06T18:26:12.379Z,16.95
2024-03-06T18:28:51.867Z,18.67
2024-03-06T18:31:18.755Z,23.52
2024-03-06T18:33:45.529Z,19.13
2024-03-06T18:36:13.250Z,19.50
2024-03-06T18:38:41.358Z,17.67
2024-03-06T18:41:09.265Z,25.20
2024-03-06T18:43:35.918Z,24.67
2024-03-06T18:46:04.726Z,22.88
2024-03-06T18:48:33.519Z,24.13
2024-03-06T18:51:00.296Z,12.13
2024-03-06T18:53:27.135Z,18.10
2024-03-06T18:55:53.887Z,20.90
2024-03-06T18:58:22.951Z,18.30
2024-03-06T19:00:51.249Z,23.73
2024-03-06T19:03:18.254Z,14.15
2024-03-06T19:05:45.154Z,15.50
2024-03-06T19:08:12.143Z,15.38
2024-03-06T19:10:38.950Z,64.25
2024-03-06T19:13:06.158Z,22.80
2024-03-06T19:15:33.481Z,28.10
2024-03-06T19:18:00.389Z,12.07
2024-03-06T19:20:27.419Z,11.90
2024-03-06T19:22:54.176Z,12.02
2024-03-06T19:25:21.101Z,9.27
2024-03-06T19:27:48.365Z,23.80
2024-03-06T19:30:26.318Z,31.08
2024-03-06T19:32:55.604Z,12.85
2024-03-06T19:35:25.720Z,21.40
2024-03-06T19:37:54.263Z,28.20
2024-03-06T19:40:21.020Z,28.02
2024-03-06T19:42:49.050Z,27.58
2024-03-06T19:45:17.182Z,18.35
2024-03-06T19:47:44.007Z,16.33
2024-03-06T19:50:13.486Z,21.42
2024-03-06T19:52:49.509Z,12.57
2024-03-06T19:55:16.755Z,12.93
2024-03-06T19:57:43.637Z,12.63
2024-03-06T20:00:12.604Z,14.90
2024-03-06T20:02:40.097Z,20.75
2024-03-06T20:05:08.102Z,24.50
2024-03-06T20:07:35.761Z,17.20
2024-03-06T20:10:02.772Z,24.17
2024-03-06T20:12:29.948Z,16.50
2024-03-06T20:14:56.825Z,13.07
2024-03-06T20:17:23.600Z,18.73
2024-03-06T20:19:55.405Z,16.35
2024-03-06T20:22:25.512Z,15.57
2024-03-06T20:24:53.293Z,17.98
2024-03-06T20:27:20.250Z,21.00
2024-03-06T20:29:47.583Z,22.23
2024-03-06T20:32:17.156Z,24.58
2024-03-06T20:34:44.108Z,17.65
2024-03-06T20:37:10.832Z,9.95
2024-03-06T20:39:37.656Z,12.23
2024-03-06T20:42:07.615Z,9.18
2024-03-06T20:44:34.480Z,9.68
2024-03-06T20:47:02.500Z,8.88
2024-03-06T20:49:29.413Z,12.82
2024-03-06T20:51:56.693Z,13.82
2024-03-06T20:54:24.234Z,14.55
2024-03-06T20:56:52.063Z,17.58
2024-03-06T20:59:21.242Z,20.65
2024-03-06T21:01:48.007Z,24.60
2024-03-06T21:04:16.733Z,23.60
2024-03-06T21:06:43.970Z,25.55
2024-03-06T21:09:11.763Z,99.30
2024-03-06T21:11:43.827Z,29.83
2024-03-06T21:14:10.625Z,28.00
2024-03-06T21:16:37.489Z,29.15
2024-03-06T21:19:04.137Z,25.48
2024-03-06T21:21:30.850Z,24.98
2024-03-06T21:23:57.924Z,48.47
2024-03-06T21:26:25.891Z,31.42
2024-03-06T21:28:55.088Z,35.85
2024-03-06T21:31:24.379Z,45.35
2024-03-06T21:33:52.325Z,31.08
2024-03-06T21:36:20.110Z,23.40
2024-03-06T21:38:46.809Z,19.85
2024-03-06T21:41:15.542Z,28.83
2024-03-06T21:43:42.899Z,37.95
2024-03-06T21:46:14.721Z,64.38
2024-03-06T21:48:41.471Z,20.92
2024-03-06T21:51:10.262Z,19.13
2024-03-06T21:53:39.007Z,14.25
2024-03-06T21:56:06.048Z,14.80
2024-03-06T21:58:32.765Z,14.95
2024-03-06T22:00:59.419Z,16.00
2024-03-06T22:03:26.890Z,48.20
2024-03-06T22:05:55.223Z,29.75
2024-03-06T22:08:21.973Z,31.17
2024-03-06T22:10:48.716Z,23.23
2024-03-06T22:13:16.139Z,25.00
2024-03-06T22:15:42.856Z,19.40
2024-03-06T22:18:09.763Z,14.75
2024-03-06T22:20:36.588Z,13.40
2024-03-06T22:23:03.460Z,14.45
2024-03-06T22:25:30.446Z,14.35
2024-03-06T22:27:57.147Z,17.63
2024-03-06T22:30:26.686Z,14.98
2024-03-06T22:32:53.502Z,16.75
2024-03-06T22:35:20.502Z,14.20
2024-03-06T22:37:47.303Z,17.88
2024-03-06T22:40:14.165Z,40.15
2024-03-06T22:42:41.302Z,23.05
2024-03-06T22:45:08.568Z,70.68
2024-03-06T22:47:36.715Z,36.38
2024-03-06T22:50:11.804Z,29.48
2024-03-06T22:52:38.726Z,32.90
2024-03-06T22:55:08.073Z,32.35
2024-03-06T22:57:35.582Z,23.38
2024-03-06T23:00:06.456Z,19.15
2024-03-06T23:02:33.534Z,15.02
2024-03-06T23:05:00.386Z,13.60
2024-03-06T23:07:27.134Z,14.00
2024-03-06T23:09:53.837Z,12.18
2024-03-06T23:12:20.704Z,16.25
2024-03-06T23:14:47.646Z,15.35
2024-03-06T23:17:14.869Z,17.55
2024-03-06T23:19:41.595Z,16.92
2024-03-06T23:22:08.281Z,22.90
2024-03-06T23:24:35.046Z,31.58
2024-03-06T23:27:01.819Z,31.67
2024-03-06T23:29:28.541Z,33.90
2024-03-06T23:31:55.296Z,30.25
2024-03-06T23:34:21.933Z,24.48
2024-03-06T23:36:48.748Z,27.17
2024-03-06T23:39:15.638Z,20.45
2024-03-06T23:41:42.376Z,20.30
2024-03-06T23:44:09.305Z,24.55
2024-03-06T23:46:36.008Z,21.45
2024-03-06T23:49:04.267Z,20.00
2024-03-06T23:51:30.984Z,28.25
2024-03-06T23:53:57.709Z,19.42
2024-03-06T23:56:25.248Z,23.80
2024-03-06T23:58:51.937Z,23.05
